Time;durP1;ratioP1;P1;durP2;ratioP2;P2;SDS_P1;SDS_P2;PMS_P1;PMS_P2;Temp;Humidity;BMP_temperature;BMP_pressure;BME280_temperature;BME280_humidity;BME280_pressure;Samples;Min_cycle;Max_cycle;Signal;HPM_P1;HPM_P2
2023/01/29 00:00:51;;;;;;;;;;;;;;;-0.18;100.00;99749.88;67801;1278;1016239;-60
2023/01/29 00:04:11;;;;;;;;;;;;;;;-0.15;100.00;99748.84;67791;1278;1016235;-59
2023/01/29 00:07:13;;;;;;;;;;;;;;;-0.18;100.00;99758.30;67771;1278;1016470;-60
2023/01/29 00:10:15;;;;;;;;;;;;;;;-0.20;100.00;99753.84;65001;1278;6634319;-60
2023/01/29 00:13:18;;;;;;;;;;;;;;;-0.20;100.00;99762.60;67793;1278;1016370;-60
2023/01/29 00:16:21;;;;;;;;;;;;;;;-0.16;100.00;99771.19;67812;1278;1016496;-60
2023/01/29 00:19:23;;;;;;;;;;;;;;;-0.16;100.00;99774.29;67805;1278;1016179;-60
2023/01/29 00:22:34;;;;;;;;;;;;;;;-0.22;100.00;99769.30;67775;1278;1016650;-60
2023/01/29 00:25:36;;;;;;;;;;;;;;;-0.33;100.00;99770.36;67783;1278;1016276;-60
2023/01/29 00:28:38;;;;;;;;;;;;;;;-0.37;100.00;99771.39;67745;1278;1018684;-59
2023/01/29 00:31:41;;;;;;;;;;;;;;;-0.50;100.00;99775.88;67816;1278;1016331;-60
2023/01/29 00:34:43;;;;;;;;;;;;;;;-0.59;100.00;99780.70;67806;1278;1016408;-59
2023/01/29 00:37:46;;;;;;;;;;;;;;;-0.67;100.00;99785.67;67783;1278;1016400;-60
2023/01/29 00:47:32;;;;;;;;;;;;;;;-0.79;100.00;99786.54;67783;1278;1016475;-59
2023/01/29 00:50:34;;;;;;;;;;;;;;;-0.64;100.00;99773.48;67767;1278;1016362;-60
2023/01/29 00:53:36;;;;;;;;;;;;;;;-0.58;100.00;99776.73;67761;1278;1016481;-59
2023/01/29 00:56:39;;;;;;;;;;;;;;;-0.59;100.00;99773.48;67798;1278;1016007;-59
2023/01/29 00:59:41;;;;;;;;;;;;;;;-0.66;100.00;99776.06;67793;1278;1015798;-59
2023/01/29 01:06:04;;;;;;;;;;;;;;;-0.79;100.00;99775.36;67777;1278;1016474;-59
2023/01/29 01:12:26;;;;;;;;;;;;;;;-0.82;100.00;99773.83;67765;1278;1016406;-59
2023/01/29 01:15:29;;;;;;;;;;;;;;;-0.84;100.00;99775.02;67772;1278;1016180;-59
2023/01/29 01:18:31;;;;;;;;;;;;;;;-0.84;100.00;99759.55;67804;1278;1016432;-59
2023/01/29 01:21:34;;;;;;;;;;;;;;;-0.82;100.00;99747.55;67836;1278;1016556;-58
2023/01/29 01:24:36;;;;;;;;;;;;;;;-0.76;100.00;99735.19;67755;1278;1016216;-59
2023/01/29 01:27:40;;;;;;;;;;;;;;;-0.82;100.00;99735.70;67742;1278;1016782;-59
2023/01/29 01:30:42;;;;;;;;;;;;;;;-0.92;100.00;99732.77;67800;1278;1016010;-59
2023/01/29 01:33:44;;;;;;;;;;;;;;;-0.92;100.00;99730.02;67799;1278;1016224;-58
2023/01/29 01:36:47;;;;;;;;;;;;;;;-1.01;100.00;99728.13;67769;1278;1015823;-59
2023/01/29 01:39:49;;;;;;;;;;;;;;;-1.13;100.00;99730.19;67809;1278;1016410;-59
2023/01/29 01:42:52;;;;;;;;;;;;;;;-1.21;100.00;99728.80;67777;1278;1016090;-59
2023/01/29 01:45:54;;;;;;;;;;;;;;;-1.14;100.00;99731.90;67787;1278;1016445;-59
2023/01/29 01:48:57;;;;;;;;;;;;;;;-1.09;100.00;99727.45;67766;1278;1016328;-59
2023/01/29 01:52:00;;;;;;;;;;;;;;;-1.13;100.00;99725.05;67810;1278;1016467;-58
2023/01/29 01:55:02;;;;;;;;;;;;;;;-1.07;100.00;99725.73;67830;1278;1018438;-59
2023/01/29 01:58:05;;;;;;;;;;;;;;;-1.13;100.00;99736.88;67764;1278;1015783;-59
2023/01/29 02:01:07;;;;;;;;;;;;;;;-1.18;100.00;99738.08;67746;1278;1016438;-59
2023/01/29 02:10:50;;;;;;;;;;;;;;;-1.35;100.00;99745.09;67785;1278;1016647;-59
2023/01/29 02:13:53;;;;;;;;;;;;;;;-1.39;100.00;99741.48;67800;1278;1017149;-59
2023/01/29 02:16:55;;;;;;;;;;;;;;;-1.42;100.00;99740.95;67809;1278;1016762;-59
2023/01/29 02:19:58;;;;;;;;;;;;;;;-1.44;100.00;99738.03;67837;1278;1016514;-59
2023/01/29 02:23:01;;;;;;;;;;;;;;;-1.45;100.00;99736.66;67811;1278;1016732;-59
2023/01/29 02:26:03;;;;;;;;;;;;;;;-1.51;100.00;99749.17;67772;1278;1016302;-59
2023/01/29 02:29:21;;;;;;;;;;;;;;;-1.56;100.00;99747.77;67805;1278;1016444;-59
2023/01/29 02:32:23;;;;;;;;;;;;;;;-1.58;100.00;99750.01;67764;1278;1015937;-59
2023/01/29 02:35:26;;;;;;;;;;;;;;;-1.58;100.00;99747.08;67830;1278;1016834;-59
2023/01/29 02:38:28;;;;;;;;;;;;;;;-1.59;100.00;99736.78;67785;1278;1016498;-59
2023/01/29 02:41:30;;;;;;;;;;;;;;;-1.60;100.00;99736.27;67822;1278;1015770;-59
2023/01/29 02:44:33;;;;;;;;;;;;;;;-1.64;100.00;99733.34;67800;1278;1017433;-59
2023/01/29 02:47:35;;;;;;;;;;;;;;;-1.61;100.00;99747.59;67799;1278;1016458;-59
2023/01/29 02:50:38;;;;;;;;;;;;;;;-1.54;100.00;99754.47;67823;1278;1016290;-59
2023/01/29 02:53:40;;;;;;;;;;;;;;;-1.57;100.00;99760.98;67844;1278;1016397;-59
2023/01/29 02:56:43;;;;;;;;;;;;;;;-1.58;100.00;99760.29;67765;1278;1016767;-59
2023/01/29 02:59:45;;;;;;;;;;;;;;;-1.61;100.00;99771.26;67771;1278;1016180;-60
2023/01/29 03:02:48;;;;;;;;;;;;;;;-1.62;100.00;99775.02;67764;1278;1016419;-59
2023/01/29 03:05:52;;;;;;;;;;;;;;;-1.58;100.00;99779.84;67783;1278;1016460;-59
2023/01/29 03:08:54;;;;;;;;;;;;;;;-1.61;100.00;99778.98;67795;1278;1016364;-59
2023/01/29 03:11:57;;;;;;;;;;;;;;;-1.62;100.00;99771.27;67811;1278;1016371;-59
2023/01/29 03:15:12;;;;;;;;;;;;;;;-1.65;100.00;99770.39;67782;1278;1018752;-60
2023/01/29 03:18:14;;;;;;;;;;;;;;;-1.62;100.00;99768.51;67763;1278;1016366;-59
2023/01/29 03:34:37;;;;;;;;;;;;;;;-1.69;100.00;99747.57;67819;1278;1016506;-60
2023/01/29 03:37:40;;;;;;;;;;;;;;;-1.71;100.00;99741.73;67779;1278;1016514;-58
2023/01/29 03:40:42;;;;;;;;;;;;;;;-1.71;100.00;99729.20;67800;1278;1016262;-58
2023/01/29 03:43:44;;;;;;;;;;;;;;;-1.70;100.00;99722.87;67863;1278;1016389;-57
2023/01/29 03:46:47;;;;;;;;;;;;;;;-1.68;100.00;99725.96;67827;1278;1018070;-57
2023/01/29 03:49:49;;;;;;;;;;;;;;;-1.64;100.00;99730.24;67854;1278;1016399;-57
2023/01/29 03:52:52;;;;;;;;;;;;;;;-1.70;100.00;99724.75;67753;1278;1016017;-58
2023/01/29 03:55:54;;;;;;;;;;;;;;;-1.67;100.00;99715.33;67772;1278;1016520;-58
2023/01/29 03:58:57;;;;;;;;;;;;;;;-1.71;100.00;99713.59;67831;1278;1018775;-58
2023/01/29 04:01:59;;;;;;;;;;;;;;;-1.71;100.00;99708.46;67830;1278;1017158;-58
2023/01/29 04:05:02;;;;;;;;;;;;;;;-1.71;100.00;99696.80;67811;1278;1016441;-58
2023/01/29 04:08:04;;;;;;;;;;;;;;;-1.66;100.00;99692.34;67772;1278;1016513;-58
2023/01/29 04:11:06;;;;;;;;;;;;;;;-1.68;100.00;99689.09;67764;1278;1016401;-58
2023/01/29 04:14:09;;;;;;;;;;;;;;;-1.68;100.00;99679.98;67819;1278;1015934;-58
2023/01/29 04:17:11;;;;;;;;;;;;;;;-1.66;100.00;99681.54;67831;1278;1016269;-58
2023/01/29 04:20:14;;;;;;;;;;;;;;;-1.55;100.00;99686.20;67814;1278;1016390;-58
2023/01/29 04:23:16;;;;;;;;;;;;;;;-1.52;100.00;99688.93;67788;1278;1016441;-57
2023/01/29 04:26:20;;;;;;;;;;;;;;;-1.49;100.00;99691.86;67744;1278;1016478;-58
2023/01/29 04:29:22;;;;;;;;;;;;;;;-1.41;100.00;99692.92;67792;1278;1016944;-58
2023/01/29 04:32:25;;;;;;;;;;;;;;;-1.43;100.00;99683.99;67786;1278;1016429;-58
2023/01/29 04:35:27;;;;;;;;;;;;;;;-1.43;100.00;99677.47;67826;1278;1016506;-57
2023/01/29 04:38:30;;;;;;;;;;;;;;;-1.44;100.00;99678.67;67846;1278;1016471;-58
2023/01/29 04:41:32;;;;;;;;;;;;;;;-1.45;100.00;99681.39;67791;1278;1016015;-58
2023/01/29 04:44:35;;;;;;;;;;;;;;;-1.42;100.00;99680.90;67761;1278;1016491;-58
2023/01/29 04:47:37;;;;;;;;;;;;;;;-1.37;100.00;99672.84;67827;1278;1016367;-58
2023/01/29 04:50:40;;;;;;;;;;;;;;;-1.34;100.00;99668.22;67856;1278;1016421;-58
2023/01/29 04:53:42;;;;;;;;;;;;;;;-1.29;100.00;99672.15;67817;1278;1016147;-58
2023/01/29 04:56:45;;;;;;;;;;;;;;;-1.24;100.00;99672.16;67786;1278;1016525;-58
2023/01/29 04:59:47;;;;;;;;;;;;;;;-1.17;100.00;99674.05;67874;1278;1016473;-58
2023/01/29 05:02:50;;;;;;;;;;;;;;;-1.15;100.00;99676.98;67867;1278;1016459;-58
2023/01/29 05:05:52;;;;;;;;;;;;;;;-1.11;100.00;99676.29;67844;1278;1016574;-57
2023/01/29 05:08:54;;;;;;;;;;;;;;;-1.13;100.00;99675.93;67769;1278;1016455;-58
2023/01/29 05:11:57;;;;;;;;;;;;;;;-1.18;100.00;99678.35;67767;1278;1016413;-58
2023/01/29 05:14:59;;;;;;;;;;;;;;;-1.13;100.00;99676.45;67778;1278;1016445;-58
2023/01/29 05:18:02;;;;;;;;;;;;;;;-1.14;100.00;99671.31;67788;1278;1016229;-57
2023/01/29 05:21:04;;;;;;;;;;;;;;;-1.11;100.00;99666.84;67781;1278;1015760;-58
2023/01/29 05:24:07;;;;;;;;;;;;;;;-1.11;100.00;99664.96;67783;1278;1016407;-58
2023/01/29 05:30:30;;;;;;;;;;;;;;;-1.06;100.00;99662.05;67851;1277;1016608;-58
2023/01/29 05:33:33;;;;;;;;;;;;;;;-1.06;100.00;99663.92;67865;1278;1016280;-58
2023/01/29 05:36:35;;;;;;;;;;;;;;;-1.05;100.00;99659.11;67827;1278;1016471;-58
2023/01/29 05:39:37;;;;;;;;;;;;;;;-1.04;100.00;99657.40;67845;1277;1016079;-58
2023/01/29 05:42:40;;;;;;;;;;;;;;;-0.98;100.00;99658.24;67865;1277;1017494;-58
2023/01/29 05:45:43;;;;;;;;;;;;;;;-0.99;100.00;99662.54;67841;1277;1016245;-58
2023/01/29 05:48:45;;;;;;;;;;;;;;;-1.04;100.00;99663.41;67818;1277;1016465;-58
2023/01/29 05:51:48;;;;;;;;;;;;;;;-1.09;100.00;99661.52;67825;1278;1015960;-58
2023/01/29 05:54:50;;;;;;;;;;;;;;;-1.10;100.00;99663.41;67872;1277;1016287;-58
2023/01/29 05:57:52;;;;;;;;;;;;;;;-1.09;100.00;99670.11;67885;1278;1017092;-59
2023/01/29 06:00:55;;;;;;;;;;;;;;;-1.04;100.00;99672.33;67856;1278;1017433;-58
2023/01/29 06:03:57;;;;;;;;;;;;;;;-1.04;100.00;99668.04;67834;1278;1016999;-58
2023/01/29 06:07:00;;;;;;;;;;;;;;;-1.02;100.00;99665.48;67814;1278;1016369;-58
2023/01/29 06:10:02;;;;;;;;;;;;;;;-1.06;100.00;99663.23;67854;1278;1016825;-58
2023/01/29 06:13:05;;;;;;;;;;;;;;;-1.05;100.00;99661.35;67898;1278;1015979;-58
2023/01/29 06:16:08;;;;;;;;;;;;;;;-0.95;100.00;99667.17;67819;1278;1016246;-58
2023/01/29 06:19:10;;;;;;;;;;;;;;;-0.83;100.00;99664.08;67891;1278;1016469;-58
2023/01/29 06:22:12;;;;;;;;;;;;;;;-0.78;100.00;99660.47;67871;1278;1016517;-58
2023/01/29 06:25:15;;;;;;;;;;;;;;;-0.77;100.00;99659.44;67849;1278;1016449;-58
2023/01/29 06:28:17;;;;;;;;;;;;;;;-0.74;100.00;99663.04;67840;1278;1016414;-58
2023/01/29 06:31:20;;;;;;;;;;;;;;;-0.80;100.00;99656.69;67844;1278;1016382;-59
2023/01/29 06:34:22;;;;;;;;;;;;;;;-0.77;100.00;99656.52;67845;1278;1019233;-58
2023/01/29 06:37:24;;;;;;;;;;;;;;;-0.68;100.00;99656.84;67851;1278;1016361;-59
2023/01/29 06:40:27;;;;;;;;;;;;;;;-0.70;100.00;99657.70;67854;1278;1016219;-58
2023/01/29 06:43:29;;;;;;;;;;;;;;;-0.84;100.00;99655.84;67810;1278;1017082;-58
2023/01/29 06:46:32;;;;;;;;;;;;;;;-0.80;100.00;99663.22;67839;1278;1016377;-58
2023/01/29 06:49:34;;;;;;;;;;;;;;;-0.90;100.00;99671.46;67869;1278;1016097;-58
2023/01/29 06:52:36;;;;;;;;;;;;;;;-0.90;100.00;99668.04;67904;1278;1016403;-58
2023/01/29 06:55:39;;;;;;;;;;;;;;;-0.90;100.00;99667.01;67871;1278;1016414;-58
2023/01/29 06:58:42;;;;;;;;;;;;;;;-0.85;100.00;99662.88;67868;1278;1016341;-58
2023/01/29 07:01:45;;;;;;;;;;;;;;;-0.82;100.00;99665.80;67815;1278;1016426;-58
2023/01/29 07:04:47;;;;;;;;;;;;;;;-0.86;100.00;99673.70;67874;1277;1016412;-58
2023/01/29 07:07:50;;;;;;;;;;;;;;;-0.97;100.00;99677.14;67889;1278;1016529;-58
2023/01/29 07:10:52;;;;;;;;;;;;;;;-0.89;100.00;99678.00;67869;1277;1016395;-58
2023/01/29 07:13:54;;;;;;;;;;;;;;;-0.90;100.00;99680.41;67831;1278;1016481;-58
2023/01/29 07:16:57;;;;;;;;;;;;;;;-0.92;100.00;99685.56;67830;1278;1016535;-58
2023/01/29 07:19:59;;;;;;;;;;;;;;;-0.95;100.00;99695.16;67843;1278;1016439;-59
2023/01/29 07:23:02;;;;;;;;;;;;;;;-0.90;100.00;99703.58;67842;1278;1016800;-58
2023/01/29 07:26:04;;;;;;;;;;;;;;;-0.91;100.00;99703.24;67860;1277;1016380;-58
2023/01/29 07:29:06;;;;;;;;;;;;;;;-0.88;100.00;99710.11;67835;1277;1016446;-58
2023/01/29 07:32:09;;;;;;;;;;;;;;;-0.93;100.00;99708.73;67818;1277;1016862;-58
2023/01/29 07:35:11;;;;;;;;;;;;;;;-0.88;100.00;99709.24;67812;1277;1016437;-58
2023/01/29 07:38:14;;;;;;;;;;;;;;;-0.91;100.00;99707.02;67818;1278;1016301;-58
2023/01/29 07:41:16;;;;;;;;;;;;;;;-0.98;100.00;99710.80;67857;1277;1016113;-58
2023/01/29 07:44:18;;;;;;;;;;;;;;;-0.99;100.00;99716.80;67869;1277;1016010;-58
2023/01/29 07:47:21;;;;;;;;;;;;;;;-0.95;100.00;99715.25;67858;1278;1016757;-58
2023/01/29 07:50:23;;;;;;;;;;;;;;;-0.98;100.00;99717.49;67809;1277;1016487;-58
2023/01/29 07:53:26;;;;;;;;;;;;;;;-0.93;100.00;99717.15;67864;1278;1016418;-58
2023/01/29 07:56:28;;;;;;;;;;;;;;;-0.90;100.00;99726.41;67865;1278;1016021;-58
2023/01/29 07:59:31;;;;;;;;;;;;;;;-0.84;100.00;99725.72;67867;1277;1016352;-58
2023/01/29 08:02:33;;;;;;;;;;;;;;;-0.81;100.00;99720.93;67833;1277;1015813;-58
2023/01/29 08:05:35;;;;;;;;;;;;;;;-0.76;100.00;99719.20;67804;1277;1016360;-58
2023/01/29 08:08:38;;;;;;;;;;;;;;;-0.72;100.00;99713.71;67848;1277;1016271;-58
2023/01/29 08:11:40;;;;;;;;;;;;;;;-0.75;100.00;99703.75;67867;1277;1016389;-58
2023/01/29 08:14:44;;;;;;;;;;;;;;;-0.79;100.00;99704.10;67856;1277;1016235;-58
2023/01/29 08:17:46;;;;;;;;;;;;;;;-0.73;100.00;99704.60;67859;1277;1017235;-58
2023/01/29 08:20:49;;;;;;;;;;;;;;;-0.57;100.00;99708.53;67859;1277;1016135;-58
2023/01/29 08:23:52;;;;;;;;;;;;;;;-0.42;100.00;99707.81;67807;1277;1016624;-58
2023/01/29 08:26:55;;;;;;;;;;;;;;;-0.32;100.00;99708.81;67865;1278;1015978;-58
2023/01/29 08:29:57;;;;;;;;;;;;;;;-0.16;100.00;99711.02;67775;1277;1016080;-58
2023/01/29 08:33:00;;;;;;;;;;;;;;;-0.18;100.00;99720.81;67789;1277;1016410;-58
2023/01/29 08:36:02;;;;;;;;;;;;;;;-0.22;100.00;99716.02;67807;1277;1016280;-58
2023/01/29 08:39:04;;;;;;;;;;;;;;;-0.25;100.00;99708.80;67868;1277;1016877;-58
2023/01/29 08:42:07;;;;;;;;;;;;;;;-0.16;100.00;99720.46;67860;1277;1016524;-58
2023/01/29 08:45:09;;;;;;;;;;;;;;;-0.18;100.00;99728.39;67779;1277;1016465;-58
2023/01/29 08:48:12;;;;;;;;;;;;;;;-0.25;100.00;99724.80;67834;1277;1016389;-58
2023/01/29 08:51:14;;;;;;;;;;;;;;;-0.35;100.00;99718.45;67830;1277;1016450;-58
2023/01/29 08:54:16;;;;;;;;;;;;;;;-0.36;100.00;99708.14;67862;1277;1016426;-58
2023/01/29 08:57:19;;;;;;;;;;;;;;;-0.24;100.00;99703.48;67826;1277;1016483;-58
2023/01/29 09:00:21;;;;;;;;;;;;;;;-0.24;100.00;99704.50;67843;1278;1016230;-58
2023/01/29 09:03:24;;;;;;;;;;;;;;;-0.23;100.00;99702.77;67823;1278;1018784;-58
2023/01/29 09:06:26;;;;;;;;;;;;;;;-0.19;100.00;99689.19;67864;1277;1016127;-57
2023/01/29 09:09:29;;;;;;;;;;;;;;;-0.15;100.00;99681.27;67884;1277;1016375;-58
2023/01/29 09:12:31;;;;;;;;;;;;;;;-0.13;100.00;99684.86;67820;1278;1017405;-58
2023/01/29 09:15:33;;;;;;;;;;;;;;;-0.04;100.00;99679.16;67839;1277;1016364;-58
2023/01/29 09:18:36;;;;;;;;;;;;;;;0.01;100.00;99672.77;67847;1278;1016451;-58
2023/01/29 09:21:38;;;;;;;;;;;;;;;-0.01;100.00;99689.30;67877;1277;1016504;-58
2023/01/29 09:24:41;;;;;;;;;;;;;;;0.01;100.00;99679.31;67866;1277;1016406;-58
2023/01/29 09:27:43;;;;;;;;;;;;;;;0.10;100.00;99686.15;67880;1277;1016855;-58
2023/01/29 09:30:46;;;;;;;;;;;;;;;0.04;100.00;99689.28;67848;1277;1016320;-58
2023/01/29 09:33:48;;;;;;;;;;;;;;;-0.01;100.00;99691.02;67830;1277;1016458;-58
2023/01/29 09:36:50;;;;;;;;;;;;;;;0.22;100.00;99679.38;67833;1277;1016750;-58
2023/01/29 09:39:53;;;;;;;;;;;;;;;0.40;100.00;99681.02;67882;1277;1016307;-58
2023/01/29 09:42:55;;;;;;;;;;;;;;;0.49;100.00;99688.00;67862;1278;1016442;-58
2023/01/29 09:45:58;;;;;;;;;;;;;;;0.57;100.00;99684.70;67851;1278;1016546;-58
2023/01/29 09:49:00;;;;;;;;;;;;;;;0.48;100.00;99682.15;67836;1278;1016471;-58
2023/01/29 09:52:02;;;;;;;;;;;;;;;0.47;100.00;99671.66;67791;1277;1016435;-58
2023/01/29 09:55:05;;;;;;;;;;;;;;;0.40;100.00;99665.16;67823;1278;1016290;-58
2023/01/29 09:58:07;;;;;;;;;;;;;;;0.41;100.00;99657.09;67868;1277;1016811;-58
2023/01/29 10:01:10;;;;;;;;;;;;;;;0.51;100.00;99644.45;67850;1277;1016176;-58
2023/01/29 10:04:12;;;;;;;;;;;;;;;0.52;100.00;99637.73;67825;1277;1019167;-58
2023/01/29 10:07:15;;;;;;;;;;;;;;;0.59;100.00;99625.29;67810;1277;1016639;-58
2023/01/29 10:10:18;;;;;;;;;;;;;;;0.60;100.00;99617.88;67859;1277;1016461;-58
2023/01/29 10:13:20;;;;;;;;;;;;;;;0.64;100.00;99611.64;67838;1277;1016983;-58
2023/01/29 10:16:22;;;;;;;;;;;;;;;0.66;100.00;99604.75;67817;1278;1016313;-58
2023/01/29 10:19:25;;;;;;;;;;;;;;;0.82;100.00;99592.91;67838;1277;1016101;-58
2023/01/29 10:22:27;;;;;;;;;;;;;;;0.89;100.00;99590.77;67882;1277;1016406;-58
2023/01/29 10:25:30;;;;;;;;;;;;;;;0.76;100.00;99574.88;67868;1277;1016451;-58
2023/01/29 10:28:32;;;;;;;;;;;;;;;0.70;100.00;99572.17;67816;1277;1016384;-58
2023/01/29 10:31:37;;;;;;;;;;;;;;;0.75;100.00;99563.70;67812;1277;1016439;-58
2023/01/29 10:34:40;;;;;;;;;;;;;;;0.93;100.00;99562.66;67815;1277;1016456;-58
2023/01/29 10:37:43;;;;;;;;;;;;;;;1.03;100.00;99563.09;67848;1277;1016409;-58
2023/01/29 10:40:45;;;;;;;;;;;;;;;1.05;100.00;99560.66;67838;1277;1017025;-58
2023/01/29 10:43:48;;;;;;;;;;;;;;;1.10;100.00;99560.77;67889;1277;1018495;-58
2023/01/29 10:46:50;;;;;;;;;;;;;;;1.29;100.00;99536.27;67884;1277;1016160;-58
2023/01/29 10:49:53;;;;;;;;;;;;;;;1.46;100.00;99535.02;67857;1277;1016495;-58
2023/01/29 10:52:56;;;;;;;;;;;;;;;1.61;100.00;99546.56;67811;1277;1016432;-58
2023/01/29 10:55:59;;;;;;;;;;;;;;;1.56;100.00;99539.89;67827;1277;1018545;-58
2023/01/29 10:59:01;;;;;;;;;;;;;;;1.50;100.00;99527.90;67871;1277;1016299;-58
2023/01/29 11:02:04;;;;;;;;;;;;;;;1.47;100.00;99535.53;67875;1277;1016466;-58
2023/01/29 11:05:06;;;;;;;;;;;;;;;1.23;100.00;99522.71;67865;1277;1016441;-59
2023/01/29 11:08:09;;;;;;;;;;;;;;;1.07;100.00;99515.67;67843;1277;1016350;-58
2023/01/29 11:11:12;;;;;;;;;;;;;;;1.05;100.00;99514.31;67879;1277;1016409;-58
2023/01/29 11:14:14;;;;;;;;;;;;;;;0.93;100.00;99514.95;67868;1277;1017984;-58
2023/01/29 11:17:17;;;;;;;;;;;;;;;0.76;100.00;99511.35;67840;1277;1017252;-58
2023/01/29 11:20:19;;;;;;;;;;;;;;;0.83;100.00;99506.98;67823;1277;1017073;-58
2023/01/29 11:23:22;;;;;;;;;;;;;;;0.90;100.00;99509.48;67869;1277;1016273;-58
2023/01/29 11:26:24;;;;;;;;;;;;;;;0.77;100.00;99512.02;67872;1277;1017052;-58
2023/01/29 11:29:27;;;;;;;;;;;;;;;0.65;100.00;99508.35;67888;1277;1016815;-58
2023/01/29 11:32:29;;;;;;;;;;;;;;;0.67;100.00;99508.16;67858;1277;1016501;-58
2023/01/29 11:35:32;;;;;;;;;;;;;;;0.83;100.00;99505.23;67858;1277;1016793;-58
2023/01/29 11:38:35;;;;;;;;;;;;;;;1.02;100.00;99513.31;67852;1277;1018708;-58
2023/01/29 11:41:37;;;;;;;;;;;;;;;0.99;100.00;99514.56;67826;1277;1016225;-58
2023/01/29 11:44:39;;;;;;;;;;;;;;;0.90;100.00;99507.94;67806;1277;1016148;-58
2023/01/29 11:47:42;;;;;;;;;;;;;;;0.89;100.00;99502.60;67807;1277;1016484;-58
2023/01/29 11:50:44;;;;;;;;;;;;;;;0.93;100.00;99502.39;67847;1277;1016483;-58
2023/01/29 11:53:47;;;;;;;;;;;;;;;0.84;100.00;99505.41;67879;1277;1016425;-58
2023/01/29 11:56:50;;;;;;;;;;;;;;;0.82;100.00;99496.48;67810;1277;1016484;-58
2023/01/29 11:59:53;;;;;;;;;;;;;;;0.83;100.00;99499.05;67900;1277;1016050;-58
2023/01/29 12:02:55;;;;;;;;;;;;;;;0.78;100.00;99492.73;67876;1277;1015936;-58
2023/01/29 12:05:58;;;;;;;;;;;;;;;0.78;100.00;99486.54;67817;1277;1016483;-58
2023/01/29 12:09:00;;;;;;;;;;;;;;;0.77;100.00;99493.09;67851;1277;1016381;-58
2023/01/29 12:12:03;;;;;;;;;;;;;;;0.73;100.00;99482.80;65307;1278;5383247;-58
2023/01/29 12:15:05;;;;;;;;;;;;;;;0.70;100.00;99473.02;67880;1277;1016463;-58
2023/01/29 12:18:07;;;;;;;;;;;;;;;0.81;100.00;99467.40;67865;1277;1016314;-58
2023/01/29 12:21:10;;;;;;;;;;;;;;;0.90;100.00;99466.77;67840;1277;1016357;-58
2023/01/29 12:24:12;;;;;;;;;;;;;;;0.98;100.00;99454.80;67812;1277;1016526;-58
2023/01/29 12:27:14;;;;;;;;;;;;;;;1.03;100.00;99450.63;67872;1277;1016362;-58
2023/01/29 12:30:17;;;;;;;;;;;;;;;0.89;100.00;99439.41;67845;1277;1016485;-58
2023/01/29 12:33:19;;;;;;;;;;;;;;;0.98;100.00;99433.61;67884;1277;1016290;-58
2023/01/29 12:36:22;;;;;;;;;;;;;;;0.96;100.00;99434.86;67817;1277;1017177;-58
2023/01/29 12:39:24;;;;;;;;;;;;;;;0.97;100.00;99431.40;67825;1277;1016478;-59
2023/01/29 12:42:26;;;;;;;;;;;;;;;0.96;100.00;99425.73;67818;1277;1016372;-58
2023/01/29 12:45:29;;;;;;;;;;;;;;;0.91;100.00;99423.20;67883;1277;1016478;-58
2023/01/29 12:48:31;;;;;;;;;;;;;;;0.98;100.00;99412.26;67862;1277;1016355;-58
2023/01/29 12:51:34;;;;;;;;;;;;;;;1.04;100.00;99411.68;67823;1277;1017323;-58
2023/01/29 12:54:36;;;;;;;;;;;;;;;1.03;100.00;99405.30;67814;1277;1016502;-58
2023/01/29 12:57:38;;;;;;;;;;;;;;;1.07;100.00;99399.25;67842;1277;1016071;-58
2023/01/29 13:00:41;;;;;;;;;;;;;;;1.17;100.00;99399.61;67877;1277;1016698;-58
2023/01/29 13:03:43;;;;;;;;;;;;;;;1.24;100.00;99397.80;67877;1277;1016771;-58
2023/01/29 13:06:46;;;;;;;;;;;;;;;1.10;100.00;99395.58;67903;1277;1016568;-58
2023/01/29 13:09:48;;;;;;;;;;;;;;;1.16;100.00;99394.29;67872;1277;1016511;-58
2023/01/29 13:12:51;;;;;;;;;;;;;;;1.15;100.00;99401.70;67848;1277;1016707;-58
2023/01/29 13:15:53;;;;;;;;;;;;;;;1.10;100.00;99392.13;67864;1277;1016507;-58
2023/01/29 13:18:56;;;;;;;;;;;;;;;1.09;100.00;99388.52;67905;1277;1016273;-58
2023/01/29 13:21:58;;;;;;;;;;;;;;;1.09;100.00;99384.39;67835;1277;1016420;-58
2023/01/29 13:25:01;;;;;;;;;;;;;;;1.11;100.00;99382.46;67836;1277;1016943;-58
2023/01/29 13:28:03;;;;;;;;;;;;;;;1.21;100.00;99372.70;67840;1277;1016303;-58
2023/01/29 13:31:05;;;;;;;;;;;;;;;1.25;100.00;99367.63;67894;1277;1018898;-58
2023/01/29 13:34:08;;;;;;;;;;;;;;;1.27;100.00;99376.56;67880;1277;1016415;-58
2023/01/29 13:37:10;;;;;;;;;;;;;;;1.34;100.00;99371.98;67848;1277;1016387;-58
2023/01/29 13:40:12;;;;;;;;;;;;;;;1.33;100.00;99372.67;67824;1277;1016485;-58
2023/01/29 13:43:15;;;;;;;;;;;;;;;1.31;100.00;99369.79;67830;1277;1016849;-58
2023/01/29 13:46:20;;;;;;;;;;;;;;;1.35;100.00;99364.73;67848;1277;1016138;-58
2023/01/29 13:49:22;;;;;;;;;;;;;;;1.48;100.00;99366.61;67868;1277;1016199;-58
2023/01/29 13:52:24;;;;;;;;;;;;;;;1.48;100.00;99370.04;67859;1277;1016685;-58
2023/01/29 13:55:30;;;;;;;;;;;;;;;1.48;100.00;99367.64;67831;1277;1016363;-58
2023/01/29 13:58:32;;;;;;;;;;;;;;;1.35;100.00;99368.87;67889;1277;1016284;-58
2023/01/29 14:01:35;;;;;;;;;;;;;;;1.33;100.00;99363.39;67880;1277;1016653;-58
2023/01/29 14:04:37;;;;;;;;;;;;;;;1.30;100.00;99365.33;67837;1277;1016390;-58
2023/01/29 14:07:40;;;;;;;;;;;;;;;1.33;100.00;99374.58;67858;1277;1017030;-58
2023/01/29 14:10:42;;;;;;;;;;;;;;;1.21;100.00;99370.43;67874;1277;1016184;-58
2023/01/29 14:13:45;;;;;;;;;;;;;;;1.13;100.00;99359.17;67842;1277;1016515;-58
2023/01/29 14:16:47;;;;;;;;;;;;;;;1.07;100.00;99361.52;67840;1277;1016305;-58
2023/01/29 14:19:50;;;;;;;;;;;;;;;1.05;100.00;99344.14;67882;1277;1016226;-58
2023/01/29 14:22:52;;;;;;;;;;;;;;;0.94;100.00;99344.63;67898;1277;1016382;-58
2023/01/29 14:25:55;;;;;;;;;;;;;;;0.81;100.00;99346.70;67838;1277;1016115;-58
2023/01/29 14:28:57;;;;;;;;;;;;;;;0.85;100.00;99351.80;67848;1277;1016351;-58
2023/01/29 14:32:00;;;;;;;;;;;;;;;0.82;100.00;99355.29;67868;1277;1015982;-58
2023/01/29 14:35:02;;;;;;;;;;;;;;;0.89;100.00;99363.47;67877;1277;1016422;-58
2023/01/29 14:38:04;;;;;;;;;;;;;;;0.82;100.00;99360.10;67878;1277;1016448;-58
2023/01/29 14:41:07;;;;;;;;;;;;;;;0.88;100.00;99355.05;67835;1277;1016946;-58
2023/01/29 14:44:09;;;;;;;;;;;;;;;0.92;100.00;99354.11;67810;1277;1016227;-58
2023/01/29 14:47:12;;;;;;;;;;;;;;;0.99;100.00;99344.23;67886;1277;1016267;-59
2023/01/29 14:50:14;;;;;;;;;;;;;;;1.03;100.00;99340.55;67871;1277;1016346;-58
2023/01/29 14:53:17;;;;;;;;;;;;;;;1.04;100.00;99342.95;67886;1277;1016257;-58
2023/01/29 14:56:19;;;;;;;;;;;;;;;1.07;100.00;99338.77;67845;1277;1016326;-58
2023/01/29 14:59:21;;;;;;;;;;;;;;;1.03;100.00;99349.15;67813;1277;1016237;-58
2023/01/29 15:02:25;;;;;;;;;;;;;;;0.94;100.00;99344.11;67839;1277;1016073;-58
2023/01/29 15:05:28;;;;;;;;;;;;;;;0.91;100.00;99340.70;67801;1277;1015914;-58
2023/01/29 15:08:30;;;;;;;;;;;;;;;1.01;100.00;99346.95;67851;1277;1016819;-58
2023/01/29 15:11:36;;;;;;;;;;;;;;;0.99;100.00;99345.08;67938;1277;1016172;-58
2023/01/29 15:14:40;;;;;;;;;;;;;;;1.04;100.00;99338.81;67838;1277;1016434;-59
2023/01/29 15:17:43;;;;;;;;;;;;;;;0.98;100.00;99338.90;67853;1277;1016339;-60
2023/01/29 15:20:45;;;;;;;;;;;;;;;0.90;100.00;99336.42;67895;1277;1016099;-59
2023/01/29 15:23:47;;;;;;;;;;;;;;;0.88;100.00;99333.02;67901;1277;1019545;-59
2023/01/29 15:26:50;;;;;;;;;;;;;;;0.84;100.00;99316.87;67855;1277;1016104;-59
2023/01/29 15:29:52;;;;;;;;;;;;;;;0.83;100.00;99306.73;67863;1277;1016416;-59
2023/01/29 15:32:55;;;;;;;;;;;;;;;0.82;100.00;99317.59;67879;1277;1016498;-59
2023/01/29 15:35:57;;;;;;;;;;;;;;;0.88;100.00;99328.02;67894;1277;1016509;-59
2023/01/29 15:39:00;;;;;;;;;;;;;;;0.90;100.00;99312.84;67881;1277;1016313;-59
2023/01/29 15:42:02;;;;;;;;;;;;;;;0.92;100.00;99310.55;67846;1277;1016490;-59
2023/01/29 15:45:04;;;;;;;;;;;;;;;0.93;100.00;99310.20;67848;1277;1016136;-59
2023/01/29 15:48:07;;;;;;;;;;;;;;;0.91;100.00;99296.80;67843;1277;1016469;-59
2023/01/29 15:51:10;;;;;;;;;;;;;;;0.97;100.00;99302.05;67851;1277;1016568;-59
2023/01/29 15:54:13;;;;;;;;;;;;;;;0.99;100.00;99305.47;67841;1277;1016442;-59